createdAt,value
2019-03-23T00:02:06.055Z,101413.08
2019-03-23T00:07:10.426Z,101408.67
2019-03-23T00:12:14.748Z,101402.81
2019-03-23T00:17:19.141Z,101395.67
2019-03-23T00:22:23.637Z,101383.58
2019-03-23T00:27:27.967Z,101394.52
2019-03-23T00:32:32.400Z,101394.52
2019-03-23T00:37:36.816Z,101385.41
2019-03-23T00:42:41.148Z,101374.16
2019-03-23T00:47:45.563Z,101374.16
2019-03-23T00:52:49.866Z,101363.69
2019-03-23T00:57:54.267Z,101361.11
2019-03-23T01:02:58.639Z,101364.86
2019-03-23T01:08:03.095Z,101359.48
2019-03-23T01:13:07.422Z,101359.48
2019-03-23T01:18:11.791Z,101361.42
2019-03-23T01:23:16.110Z,101361.42
2019-03-23T01:28:20.418Z,101345.84
2019-03-23T01:33:24.751Z,101341.91
2019-03-23T01:38:29.214Z,101345.45
2019-03-23T01:43:33.537Z,101344.88
2019-03-23T01:48:37.833Z,101344.88
2019-03-23T01:53:42.148Z,101337.77
2019-03-23T01:58:48.779Z,101337.77
2019-03-23T02:03:53.125Z,101346.91
2019-03-23T02:08:57.461Z,101351.42
2019-03-23T02:14:01.812Z,101351.42
2019-03-23T02:19:06.127Z,101338.47
2019-03-23T02:24:10.477Z,101339.33
2019-03-23T02:29:14.808Z,101332.72
2019-03-23T02:34:19.135Z,101332.72
2019-03-23T02:39:23.485Z,101330.13
2019-03-23T02:44:27.809Z,101330.13
2019-03-23T02:49:32.167Z,101323.69
2019-03-23T02:54:36.543Z,101329.66
2019-03-23T02:59:41.013Z,101331.48
2019-03-23T03:04:45.400Z,101337.72
2019-03-23T03:09:49.721Z,101326.48
2019-03-23T03:14:54.014Z,101326.96
2019-03-23T03:19:58.365Z,101321.97
2019-03-23T03:25:03.007Z,101321.21
2019-03-23T03:30:09.221Z,101321.21
2019-03-23T03:35:13.728Z,101319.77
2019-03-23T03:40:18.061Z,101322.07
2019-03-23T03:45:26.111Z,101318.04
2019-03-23T03:50:30.512Z,101317.17
2019-03-23T03:55:34.952Z,101306.32
2019-03-23T04:00:39.303Z,101312.25
2019-03-23T04:05:43.630Z,101317.63
2019-03-23T04:10:47.960Z,101308.63
2019-03-23T04:15:52.287Z,101309.11
2019-03-23T04:20:56.623Z,101309.11
2019-03-23T04:26:00.973Z,101310.53
2019-03-23T04:31:05.277Z,101315.53
2019-03-23T04:36:09.584Z,101315.53
2019-03-23T04:41:13.888Z,101309.19
2019-03-23T04:46:18.189Z,101309.19
2019-03-23T04:51:22.553Z,101319.56
2019-03-23T04:56:26.842Z,101317.63
2019-03-23T05:01:31.210Z,101317.63
2019-03-23T05:06:35.736Z,101307.47
2019-03-23T05:11:40.077Z,101306.02
2019-03-23T05:16:44.530Z,101306.43
2019-03-23T05:21:48.862Z,101312.84
2019-03-23T05:26:53.207Z,101312.84
2019-03-23T05:31:57.520Z,101316.22
2019-03-23T05:37:01.810Z,101324.08
2019-03-23T05:42:06.101Z,101321.77
2019-03-23T05:47:10.428Z,101321.77
2019-03-23T05:52:14.770Z,101317.36
2019-03-23T05:57:19.918Z,101315.53
2019-03-23T06:02:24.390Z,101317.36
2019-03-23T06:07:28.683Z,101317.36
2019-03-23T06:12:32.977Z,101327.14
2019-03-23T06:17:37.364Z,101324.34
2019-03-23T06:22:42.407Z,101324.94
2019-03-23T06:27:46.712Z,101319.94
2019-03-23T06:32:51.088Z,101322.63
2019-03-23T06:37:55.442Z,101325.69
2019-03-23T06:43:00.149Z,101317.36
2019-03-23T06:48:04.813Z,101323.48
2019-03-23T06:53:10.302Z,101327.45
2019-03-23T06:58:14.599Z,101327.83
2019-03-23T07:03:18.925Z,101333.30
2019-03-23T07:08:31.576Z,101331.66
2019-03-23T07:13:29.266Z,101329.45
2019-03-23T07:18:33.602Z,101329.45
2019-03-23T07:23:37.899Z,101327.94
2019-03-23T07:28:42.197Z,101329.29
2019-03-23T07:33:46.515Z,101329.29
2019-03-23T07:38:50.845Z,101330.25
2019-03-23T07:43:55.232Z,101326.88
2019-03-23T07:48:59.536Z,101326.88
2019-03-23T07:54:03.862Z,101320.38
2019-03-23T07:59:08.410Z,101320.57
2019-03-23T08:04:12.817Z,101336.62
2019-03-23T08:09:20.759Z,101336.62
2019-03-23T08:14:23.165Z,101339.64
2019-03-23T08:19:27.502Z,101336.70
2019-03-23T08:24:31.827Z,101336.70
2019-03-23T08:29:36.136Z,101337.22
2019-03-23T08:34:40.467Z,101334.25
2019-03-23T08:39:48.758Z,101334.25
2019-03-23T08:44:50.861Z,101328.20
2019-03-23T08:49:55.167Z,101322.06
2019-03-23T08:54:59.505Z,101322.06
2019-03-23T09:05:22.317Z,101328.58
2019-03-23T09:10:26.630Z,101329.06
2019-03-23T09:15:30.933Z,101326.96
2019-03-23T09:20:35.314Z,101324.83
2019-03-23T09:25:39.616Z,101324.83
2019-03-23T09:30:43.945Z,101330.97
2019-03-23T09:35:48.255Z,101330.97
2019-03-23T09:40:52.572Z,101336.44
2019-03-23T09:45:56.943Z,101335.09
2019-03-23T09:51:01.268Z,101331.25
2019-03-23T09:56:05.710Z,101333.38
2019-03-23T10:01:10.033Z,101334.23
2019-03-23T10:06:14.354Z,101338.46
2019-03-23T10:11:18.723Z,101338.46
2019-03-23T10:16:23.049Z,101338.16
2019-03-23T10:21:27.419Z,101338.16
2019-03-23T10:26:31.872Z,101333.09
2019-03-23T10:31:36.281Z,101333.09
2019-03-23T10:36:40.702Z,101331.28
2019-03-23T10:41:45.011Z,101331.28
2019-03-23T10:46:49.328Z,101318.78
2019-03-23T10:51:53.673Z,101324.08
2019-03-23T10:56:58.173Z,101324.08
2019-03-23T11:02:02.505Z,101318.40
2019-03-23T11:07:06.847Z,101318.40
2019-03-23T11:12:11.206Z,101316.31
2019-03-23T11:17:17.540Z,101306.98
2019-03-23T11:22:21.846Z,101308.59
2019-03-23T11:27:26.166Z,101308.59
2019-03-23T11:32:30.512Z,101308.48
2019-03-23T11:37:35.016Z,101308.42
2019-03-23T11:42:49.382Z,101305.58
2019-03-23T11:47:45.456Z,101298.63
2019-03-23T11:52:49.770Z,101298.63
2019-03-23T11:57:54.087Z,101305.20
2019-03-23T12:02:58.474Z,101305.20
2019-03-23T12:08:02.854Z,101294.50
2019-03-23T12:13:07.150Z,101285.00
2019-03-23T12:18:11.476Z,101285.00
2019-03-23T12:23:15.783Z,101281.45
2019-03-23T12:28:20.095Z,101286.52
2019-03-23T12:33:24.506Z,101286.52
2019-03-23T12:38:28.892Z,101280.59
2019-03-23T12:43:33.226Z,101274.09
2019-03-23T12:48:37.554Z,101274.09
2019-03-23T13:27:15.134Z,101282.03
2019-03-23T13:32:19.428Z,101277.31
2019-03-23T13:37:23.716Z,101277.91
2019-03-23T13:42:28.076Z,101282.90
2019-03-23T13:47:34.494Z,101281.63
2019-03-23T13:52:38.429Z,101281.55
2019-03-23T13:57:42.745Z,101287.00
2019-03-23T14:02:47.082Z,101287.10
2019-03-23T14:07:51.417Z,101287.48
2019-03-23T14:12:55.704Z,101291.13
2019-03-23T14:18:00.018Z,101291.13
2019-03-23T14:23:04.343Z,101294.68
2019-03-23T14:28:08.658Z,101300.16
2019-03-23T14:33:12.962Z,101300.16
2019-03-23T15:05:31.610Z,101333.95
2019-03-23T15:10:35.935Z,101333.38
2019-03-23T15:15:40.303Z,101338.68
2019-03-23T15:20:44.627Z,101342.98
2019-03-23T15:25:49.000Z,101348.47
2019-03-23T15:30:53.299Z,101348.47
2019-03-23T15:35:57.673Z,101345.30
2019-03-23T15:41:02.015Z,101364.55
2019-03-23T15:46:06.346Z,101366.68
2019-03-23T15:51:10.641Z,101366.68
2019-03-23T15:56:14.989Z,101362.77
2019-03-23T16:01:19.299Z,101367.35
2019-03-23T16:06:23.750Z,101379.81
2019-03-23T16:11:28.153Z,101384.81
2019-03-23T16:16:32.508Z,101392.02
2019-03-23T16:21:36.852Z,101400.56
2019-03-23T16:26:41.164Z,101394.43
2019-03-23T16:31:45.509Z,101394.43
2019-03-23T16:36:49.879Z,101405.08
2019-03-23T16:41:54.189Z,101412.87
2019-03-23T16:46:58.513Z,101417.01
2019-03-23T16:52:02.848Z,101427.09
2019-03-23T16:57:07.168Z,101425.92
2019-03-23T17:02:11.474Z,101425.92
2019-03-23T17:07:15.769Z,101438.21
2019-03-23T17:12:20.084Z,101426.52
2019-03-23T17:17:24.476Z,101432.00
2019-03-23T17:22:28.781Z,101432.00
2019-03-23T17:27:33.091Z,101437.84
2019-03-23T17:32:37.939Z,101442.34
2019-03-23T17:37:42.412Z,101455.94
2019-03-23T17:42:46.751Z,101463.33
2019-03-23T17:47:51.084Z,101474.83
2019-03-23T17:52:55.412Z,101474.83
2019-03-23T17:57:59.685Z,101485.95
2019-03-23T18:03:04.008Z,101499.06
2019-03-23T18:08:08.310Z,101490.45
2019-03-23T18:13:16.788Z,101490.45
2019-03-23T18:18:18.739Z,101527.45
2019-03-23T18:23:23.027Z,101538.11
2019-03-23T18:28:27.343Z,101538.11
2019-03-23T18:33:31.638Z,101545.91
2019-03-23T18:38:36.067Z,101566.83
2019-03-23T18:43:40.419Z,101573.76
2019-03-23T18:48:44.738Z,101573.76
2019-03-23T18:53:49.035Z,101575.76
2019-03-23T18:58:53.352Z,101580.83
2019-03-23T19:03:57.926Z,101592.83
2019-03-23T19:09:02.240Z,101592.83
2019-03-23T19:14:06.585Z,101605.63
2019-03-23T19:19:10.929Z,101606.48
2019-03-23T19:24:15.240Z,101607.35
2019-03-23T19:29:19.580Z,101607.35
2019-03-23T19:34:23.896Z,101620.89
2019-03-23T19:39:28.271Z,101630.69
2019-03-23T19:44:32.595Z,101630.69
2019-03-23T19:49:36.921Z,101628.41
2019-03-23T19:54:41.239Z,101635.98
2019-03-23T19:59:45.654Z,101639.74
2019-03-23T20:04:49.959Z,101639.74
2019-03-23T20:09:54.257Z,101638.00
2019-03-23T20:14:58.560Z,101651.72
2019-03-23T20:20:02.894Z,101651.72
2019-03-23T20:25:07.239Z,101656.13
2019-03-23T20:30:11.709Z,101658.27
2019-03-23T20:35:16.028Z,101658.91
2019-03-23T20:40:20.410Z,101658.91
2019-03-23T20:45:29.543Z,101659.40
2019-03-23T20:50:33.848Z,101659.40
2019-03-23T20:55:38.139Z,101659.70
2019-03-23T21:00:42.534Z,101658.73
2019-03-23T21:05:46.907Z,101658.73
2019-03-23T21:10:51.305Z,101658.63
2019-03-23T21:15:55.594Z,101651.70
2019-03-23T21:20:59.975Z,101650.07
2019-03-23T21:26:04.343Z,101651.51
2019-03-23T21:31:08.648Z,101643.34
2019-03-23T21:36:12.944Z,101643.83
2019-03-23T21:41:17.233Z,101643.83
2019-03-23T21:46:21.531Z,101645.38
2019-03-23T21:51:25.865Z,101637.59
2019-03-23T21:56:30.160Z,101626.94
2019-03-23T22:01:34.453Z,101626.94
2019-03-23T22:06:38.754Z,101627.90
2019-03-23T22:11:43.041Z,101617.25
2019-03-23T22:16:47.339Z,101616.77
2019-03-23T22:21:51.628Z,101621.76
2019-03-23T22:26:55.919Z,101620.98
2019-03-23T22:32:00.239Z,101618.88
2019-03-23T22:37:04.528Z,101618.88
2019-03-23T22:42:08.846Z,101607.26
2019-03-23T22:47:13.192Z,101610.13
2019-03-23T22:52:17.587Z,101612.25
2019-03-23T22:57:21.896Z,101612.25
2019-03-23T23:02:26.601Z,101606.58
2019-03-23T23:07:30.971Z,101598.03
2019-03-23T23:12:35.291Z,101594.30
2019-03-23T23:17:39.677Z,101594.30
2019-03-23T23:22:43.999Z,101589.48
2019-03-23T23:27:48.395Z,101589.48
2019-03-23T23:32:52.742Z,101583.92
2019-03-23T23:37:57.067Z,101575.77
2019-03-23T23:43:01.391Z,101578.55
2019-03-23T23:48:05.801Z,101586.14
2019-03-23T23:53:10.143Z,101583.34
2019-03-23T23:58:14.475Z,101578.45
